sensor_id;sensor_type;location;lat;lon;timestamp;pressure;altitude;pressure_sealevel;temperature;humidity
66681;BME280;53575;51.366;12.350;2023-03-26T00:00:08;99304.63;;;7.83;87.42
66681;BME280;53575;51.366;12.350;2023-03-26T00:02:35;99307.28;;;7.78;87.32
66681;BME280;53575;51.366;12.350;2023-03-26T00:05:05;99308.22;;;7.71;87.73
66681;BME280;53575;51.366;12.350;2023-03-26T00:07:30;99303.88;;;7.72;87.86
66681;BME280;53575;51.366;12.350;2023-03-26T00:09:56;99303.81;;;7.78;87.96
66681;BME280;53575;51.366;12.350;2023-03-26T00:12:23;99292.63;;;7.71;88.09
66681;BME280;53575;51.366;12.350;2023-03-26T00:14:49;99299.56;;;7.69;88.33
66681;BME280;53575;51.366;12.350;2023-03-26T00:17:15;99307.41;;;7.66;89.01
66681;BME280;53575;51.366;12.350;2023-03-26T00:19:41;99310.00;;;7.66;89.61
66681;BME280;53575;51.366;12.350;2023-03-26T00:22:07;99303.97;;;7.64;89.86
66681;BME280;53575;51.366;12.350;2023-03-26T00:24:35;99320.44;;;7.62;90.39
66681;BME280;53575;51.366;12.350;2023-03-26T00:27:01;99301.34;;;7.66;91.10
66681;BME280;53575;51.366;12.350;2023-03-26T00:29:27;99318.69;;;7.65;91.27
66681;BME280;53575;51.366;12.350;2023-03-26T00:31:52;99297.94;;;7.61;91.85
66681;BME280;53575;51.366;12.350;2023-03-26T00:34:19;99298.81;;;7.60;91.86
66681;BME280;53575;51.366;12.350;2023-03-26T00:36:47;99300.56;;;7.57;92.47
66681;BME280;53575;51.366;12.350;2023-03-26T00:39:18;99291.88;;;7.58;92.24
66681;BME280;53575;51.366;12.350;2023-03-26T00:41:44;99289.34;;;7.51;92.38
66681;BME280;53575;51.366;12.350;2023-03-26T00:44:09;99288.44;;;7.55;91.96
66681;BME280;53575;51.366;12.350;2023-03-26T00:46:35;99280.69;;;7.53;92.15
66681;BME280;53575;51.366;12.350;2023-03-26T00:49:01;99285.00;;;7.56;92.36
66681;BME280;53575;51.366;12.350;2023-03-26T00:51:28;99288.41;;;7.58;93.15
66681;BME280;53575;51.366;12.350;2023-03-26T00:53:54;99286.75;;;7.51;93.37
66681;BME280;53575;51.366;12.350;2023-03-26T00:56:20;99280.72;;;7.47;94.09
66681;BME280;53575;51.366;12.350;2023-03-26T00:58:45;99286.00;;;7.41;94.60
66681;BME280;53575;51.366;12.350;2023-03-26T01:01:16;99293.00;;;7.33;94.00
66681;BME280;53575;51.366;12.350;2023-03-26T01:03:43;99292.94;;;7.39;93.86
66681;BME280;53575;51.366;12.350;2023-03-26T01:06:13;99293.78;;;7.44;93.40
66681;BME280;53575;51.366;12.350;2023-03-26T01:08:45;99292.94;;;7.39;93.17
66681;BME280;53575;51.366;12.350;2023-03-26T01:11:21;99292.03;;;7.43;93.61
66681;BME280;53575;51.366;12.350;2023-03-26T01:13:54;99292.03;;;7.43;93.76
66681;BME280;53575;51.366;12.350;2023-03-26T01:16:33;99292.09;;;7.39;93.88
66681;BME280;53575;51.366;12.350;2023-03-26T01:19:12;99295.53;;;7.39;94.43
66681;BME280;53575;51.366;12.350;2023-03-26T01:21:40;99286.00;;;7.40;94.44
66681;BME280;53575;51.366;12.350;2023-03-26T01:24:08;99284.28;;;7.39;94.46
66681;BME280;53575;51.366;12.350;2023-03-26T01:27:08;99288.59;;;7.41;94.24
66681;BME280;53575;51.366;12.350;2023-03-26T01:38:05;99297.16;;;7.52;92.39
66681;BME280;53575;51.366;12.350;2023-03-26T01:45:51;99278.97;;;7.51;92.50
66681;BME280;53575;51.366;12.350;2023-03-26T01:48:17;99289.38;;;7.49;92.93
66681;BME280;53575;51.366;12.350;2023-03-26T01:50:43;99294.66;;;7.40;93.01
66681;BME280;53575;51.366;12.350;2023-03-26T01:53:10;99272.16;;;7.36;93.11
66681;BME280;53575;51.366;12.350;2023-03-26T01:58:26;99286.06;;;7.37;92.89
66681;BME280;53575;51.366;12.350;2023-03-26T02:03:31;99277.38;;;7.38;92.72
66681;BME280;53575;51.366;12.350;2023-03-26T02:06:17;99280.91;;;7.30;93.29
66681;BME280;53575;51.366;12.350;2023-03-26T02:08:52;99281.81;;;7.26;93.69
66681;BME280;53575;51.366;12.350;2023-03-26T02:11:21;99270.56;;;7.24;93.96
66681;BME280;53575;51.366;12.350;2023-03-26T02:13:46;99278.41;;;7.21;94.21
66681;BME280;53575;51.366;12.350;2023-03-26T02:16:14;99274.09;;;7.19;94.73
66681;BME280;53575;51.366;12.350;2023-03-26T02:18:44;99279.31;;;7.16;95.09
66681;BME280;53575;51.366;12.350;2023-03-26T02:21:15;99279.31;;;7.16;95.22
66681;BME280;53575;51.366;12.350;2023-03-26T02:23:45;99267.25;;;7.08;95.55
66681;BME280;53575;51.366;12.350;2023-03-26T02:26:12;99263.75;;;7.09;95.96
66681;BME280;53575;51.366;12.350;2023-03-26T02:28:39;99260.31;;;7.09;96.54
66681;BME280;53575;51.366;12.350;2023-03-26T02:31:05;99275.06;;;7.04;96.45
66681;BME280;53575;51.366;12.350;2023-03-26T02:33:34;99263.81;;;7.02;96.96
66681;BME280;53575;51.366;12.350;2023-03-26T02:35:59;99268.16;;;7.03;96.95
66681;BME280;53575;51.366;12.350;2023-03-26T02:38:27;99266.44;;;7.02;97.26
66681;BME280;53575;51.366;12.350;2023-03-26T02:40:53;99275.13;;;6.98;97.53
66681;BME280;53575;51.366;12.350;2023-03-26T02:43:20;99267.34;;;6.96;97.84
66681;BME280;53575;51.366;12.350;2023-03-26T02:45:45;99271.72;;;6.93;98.51
66681;BME280;53575;51.366;12.350;2023-03-26T02:48:11;99268.25;;;6.92;98.41
66681;BME280;53575;51.366;12.350;2023-03-26T02:50:37;99268.28;;;6.89;99.24
66681;BME280;53575;51.366;12.350;2023-03-26T02:53:03;99269.94;;;6.96;99.13
66681;BME280;53575;51.366;12.350;2023-03-26T02:55:28;99263.81;;;7.02;98.97
66681;BME280;53575;51.366;12.350;2023-03-26T02:57:55;99262.91;;;7.09;98.35
66681;BME280;53575;51.366;12.350;2023-03-26T03:00:20;99275.06;;;7.04;99.02
66681;BME280;53575;51.366;12.350;2023-03-26T03:02:50;99266.41;;;7.05;98.87
66681;BME280;53575;51.366;12.350;2023-03-26T03:05:17;99272.44;;;7.10;99.01
66681;BME280;53575;51.366;12.350;2023-03-26T03:07:44;99263.75;;;7.13;99.08
66681;BME280;53575;51.366;12.350;2023-03-26T03:10:12;99256.03;;;7.06;99.67
66681;BME280;53575;51.366;12.350;2023-03-26T03:12:41;99267.19;;;7.15;98.97
66681;BME280;53575;51.366;12.350;2023-03-26T03:15:07;99265.50;;;7.09;99.43
66681;BME280;53575;51.366;12.350;2023-03-26T03:17:33;99249.16;;;6.98;100.00
66681;BME280;53575;51.366;12.350;2023-03-26T03:19:59;99252.63;;;6.97;100.00
66681;BME280;53575;51.366;12.350;2023-03-26T03:22:24;99257.00;;;6.95;100.00
66681;BME280;53575;51.366;12.350;2023-03-26T03:24:50;99237.06;;;6.94;100.00
66681;BME280;53575;51.366;12.350;2023-03-26T03:27:22;99241.41;;;6.95;100.00
66681;BME280;53575;51.366;12.350;2023-03-26T03:29:50;99237.91;;;6.99;100.00
66681;BME280;53575;51.366;12.350;2023-03-26T03:32:18;99237.84;;;7.02;100.00
66681;BME280;53575;51.366;12.350;2023-03-26T03:34:43;99236.13;;;7.04;100.00
66681;BME280;53575;51.366;12.350;2023-03-26T03:37:09;99238.63;;;7.12;100.00
66681;BME280;53575;51.366;12.350;2023-03-26T03:39:34;99238.63;;;7.13;100.00
66681;BME280;53575;51.366;12.350;2023-03-26T03:42:00;99233.44;;;7.12;99.52
66681;BME280;53575;51.366;12.350;2023-03-26T03:44:28;99235.19;;;7.11;99.57
66681;BME280;53575;51.366;12.350;2023-03-26T03:46:56;99236.09;;;7.07;99.80
66681;BME280;53575;51.366;12.350;2023-03-26T03:49:22;99242.97;;;7.11;99.52
66681;BME280;53575;51.366;12.350;2023-03-26T03:51:47;99230.88;;;7.08;99.28
66681;BME280;53575;51.366;12.350;2023-03-26T03:54:13;99236.94;;;7.09;99.14
66681;BME280;53575;51.366;12.350;2023-03-26T03:56:38;99230.09;;;7.00;99.44
66681;BME280;53575;51.366;12.350;2023-03-26T03:59:04;99248.28;;;6.97;99.77
66681;BME280;53575;51.366;12.350;2023-03-26T04:01:30;99234.50;;;6.89;99.77
66681;BME280;53575;51.366;12.350;2023-03-26T04:03:57;99244.97;;;6.78;99.95
66681;BME280;53575;51.366;12.350;2023-03-26T04:06:24;99235.50;;;6.74;100.00
66681;BME280;53575;51.366;12.350;2023-03-26T04:08:52;99241.50;;;6.84;99.46
66681;BME280;53575;51.366;12.350;2023-03-26T04:11:18;99237.16;;;6.84;99.64
66681;BME280;53575;51.366;12.350;2023-03-26T04:13:43;99251.03;;;6.80;99.62
66681;BME280;53575;51.366;12.350;2023-03-26T04:16:09;99250.19;;;6.80;99.41
66681;BME280;53575;51.366;12.350;2023-03-26T04:18:35;99254.56;;;6.73;99.73
66681;BME280;53575;51.366;12.350;2023-03-26T04:21:03;99253.66;;;6.77;99.68
66681;BME280;53575;51.366;12.350;2023-03-26T04:23:29;99258.81;;;6.80;99.08
66681;BME280;53575;51.366;12.350;2023-03-26T04:25:56;99252.75;;;6.83;98.46
66681;BME280;53575;51.366;12.350;2023-03-26T04:30:55;99254.44;;;6.89;98.32
66681;BME280;53575;51.366;12.350;2023-03-26T04:33:26;99253.53;;;6.90;97.95
66681;BME280;53575;51.366;12.350;2023-03-26T04:35:53;99257.91;;;6.88;97.40
66681;BME280;53575;51.366;12.350;2023-03-26T04:38:18;99255.31;;;6.88;97.70
66681;BME280;53575;51.366;12.350;2023-03-26T04:40:44;99254.41;;;6.92;97.18
66681;BME280;53575;51.366;12.350;2023-03-26T04:43:15;99245.78;;;6.87;97.14
66681;BME280;53575;51.366;12.350;2023-03-26T04:45:42;99243.16;;;6.90;97.23
66681;BME280;53575;51.366;12.350;2023-03-26T04:48:10;99239.69;;;6.92;96.88
66681;BME280;53575;51.366;12.350;2023-03-26T04:50:40;99243.19;;;6.88;96.85
66681;BME280;53575;51.366;12.350;2023-03-26T04:53:05;99242.31;;;6.89;96.98
66681;BME280;53575;51.366;12.350;2023-03-26T04:55:45;99237.91;;;6.94;96.75
66681;BME280;53575;51.366;12.350;2023-03-26T04:58:13;99237.06;;;6.98;96.50
66681;BME280;53575;51.366;12.350;2023-03-26T05:00:40;99237.00;;;7.03;96.12
66681;BME280;53575;51.366;12.350;2023-03-26T05:03:09;99243.81;;;7.15;95.38
66681;BME280;53575;51.366;12.350;2023-03-26T05:05:34;99250.69;;;7.19;94.95
66681;BME280;53575;51.366;12.350;2023-03-26T05:08:00;99244.50;;;7.32;94.30
66681;BME280;53575;51.366;12.350;2023-03-26T05:10:25;99260.16;;;7.26;93.87
66681;BME280;53575;51.366;12.350;2023-03-26T05:12:51;99241.91;;;7.33;93.61
66681;BME280;53575;51.366;12.350;2023-03-26T05:15:16;99238.34;;;7.42;93.08
66681;BME280;53575;51.366;12.350;2023-03-26T05:17:42;99236.59;;;7.43;93.17
66681;BME280;53575;51.366;12.350;2023-03-26T05:20:27;99244.38;;;7.46;92.88
66681;BME280;53575;51.366;12.350;2023-03-26T05:22:54;99241.75;;;7.49;92.85
66681;BME280;53575;51.366;12.350;2023-03-26T05:25:20;99236.50;;;7.52;92.18
66681;BME280;53575;51.366;12.350;2023-03-26T05:27:46;99251.19;;;7.56;92.19
66681;BME280;53575;51.366;12.350;2023-03-26T05:30:14;99251.19;;;7.56;92.19
66681;BME280;53575;51.366;12.350;2023-03-26T05:32:40;99244.22;;;7.60;91.72
66681;BME280;53575;51.366;12.350;2023-03-26T05:35:06;99247.66;;;7.62;91.47
66681;BME280;53575;51.366;12.350;2023-03-26T05:37:32;99242.44;;;7.62;91.60
66681;BME280;53575;51.366;12.350;2023-03-26T05:39:58;99257.16;;;7.64;91.61
66681;BME280;53575;51.366;12.350;2023-03-26T05:42:25;99245.06;;;7.63;91.49
66681;BME280;53575;51.366;12.350;2023-03-26T05:44:51;99238.84;;;7.75;90.80
66681;BME280;53575;51.366;12.350;2023-03-26T05:47:16;99250.94;;;7.77;90.83
66681;BME280;53575;51.366;12.350;2023-03-26T05:49:42;99244.00;;;7.76;90.71
66681;BME280;53575;51.366;12.350;2023-03-26T05:52:07;99240.53;;;7.77;90.77
66681;BME280;53575;51.366;12.350;2023-03-26T05:54:33;99235.22;;;7.85;90.76
66681;BME280;53575;51.366;12.350;2023-03-26T05:56:58;99230.00;;;7.88;90.31
66681;BME280;53575;51.366;12.350;2023-03-26T05:59:25;99232.66;;;7.82;90.94
66681;BME280;53575;51.366;12.350;2023-03-26T06:01:50;99229.94;;;7.93;90.52
66681;BME280;53575;51.366;12.350;2023-03-26T06:04:19;99219.53;;;7.93;90.56
66681;BME280;53575;51.366;12.350;2023-03-26T06:06:44;99212.47;;;8.01;90.27
66681;BME280;53575;51.366;12.350;2023-03-26T06:09:10;99219.38;;;8.03;89.74
66681;BME280;53575;51.366;12.350;2023-03-26T06:11:39;99208.94;;;8.05;89.59
66681;BME280;53575;51.366;12.350;2023-03-26T06:14:05;99215.84;;;8.11;89.46
66681;BME280;53575;51.366;12.350;2023-03-26T06:16:31;99224.53;;;8.08;89.79
66681;BME280;53575;51.366;12.350;2023-03-26T06:18:57;99226.28;;;8.07;89.48
66681;BME280;53575;51.366;12.350;2023-03-26T06:21:23;99223.66;;;8.09;89.66
66681;BME280;53575;51.366;12.350;2023-03-26T06:23:49;99227.03;;;8.17;89.60
66681;BME280;53575;51.366;12.350;2023-03-26T06:26:15;99228.81;;;8.12;89.74
66681;BME280;53575;51.366;12.350;2023-03-26T06:28:41;99227.06;;;8.14;89.13
66681;BME280;53575;51.366;12.350;2023-03-26T06:31:06;99220.06;;;8.18;89.16
66681;BME280;53575;51.366;12.350;2023-03-26T06:33:32;99222.53;;;8.28;88.63
66681;BME280;53575;51.366;12.350;2023-03-26T06:35:58;99219.09;;;8.23;88.74
66681;BME280;53575;51.366;12.350;2023-03-26T06:38:23;99212.91;;;8.34;88.40
66681;BME280;53575;51.366;12.350;2023-03-26T06:40:49;99219.66;;;8.47;87.47
66681;BME280;53575;51.366;12.350;2023-03-26T06:43:14;99214.56;;;8.39;88.03
66681;BME280;53575;51.366;12.350;2023-03-26T06:45:40;99216.25;;;8.45;87.84
66681;BME280;53575;51.366;12.350;2023-03-26T06:48:07;99212.78;;;8.43;87.45
66681;BME280;53575;51.366;12.350;2023-03-26T06:50:32;99219.72;;;8.44;87.91
66681;BME280;53575;51.366;12.350;2023-03-26T06:52:58;99216.97;;;8.53;87.42
66681;BME280;53575;51.366;12.350;2023-03-26T06:55:24;99214.22;;;8.62;87.14
66681;BME280;53575;51.366;12.350;2023-03-26T06:57:51;99218.53;;;8.65;86.90
66681;BME280;53575;51.366;12.350;2023-03-26T07:00:17;99219.41;;;8.64;86.79
66681;BME280;53575;51.366;12.350;2023-03-26T07:02:43;99226.16;;;8.75;86.23
66681;BME280;53575;51.366;12.350;2023-03-26T07:05:09;99220.72;;;8.91;85.25
66681;BME280;53575;51.366;12.350;2023-03-26T07:07:34;99214.63;;;8.90;85.69
66681;BME280;53575;51.366;12.350;2023-03-26T07:10:00;99217.19;;;8.93;84.87
66681;BME280;53575;51.366;12.350;2023-03-26T07:12:25;99223.22;;;8.97;84.80
66681;BME280;53575;51.366;12.350;2023-03-26T07:14:51;99212.72;;;9.00;84.86
66681;BME280;53575;51.366;12.350;2023-03-26T07:17:17;99205.03;;;8.94;85.37
66681;BME280;53575;51.366;12.350;2023-03-26T07:19:42;99208.25;;;9.08;84.78
66681;BME280;53575;51.366;12.350;2023-03-26T07:22:19;99201.22;;;9.13;84.60
66681;BME280;53575;51.366;12.350;2023-03-26T07:24:48;99199.34;;;9.20;84.96
66681;BME280;53575;51.366;12.350;2023-03-26T07:29:57;99194.72;;;9.34;84.01
66681;BME280;53575;51.366;12.350;2023-03-26T07:38:02;99186.56;;;9.06;85.89
66681;BME280;53575;51.366;12.350;2023-03-26T07:40:56;99196.28;;;8.96;86.26
66681;BME280;53575;51.366;12.350;2023-03-26T07:46:10;99184.81;;;9.07;86.01
66681;BME280;53575;51.366;12.350;2023-03-26T07:48:41;99188.22;;;9.10;85.89
66681;BME280;53575;51.366;12.350;2023-03-26T07:51:07;99180.97;;;9.27;84.63
66681;BME280;53575;51.366;12.350;2023-03-26T07:53:35;99169.34;;;9.44;84.17
66681;BME280;53575;51.366;12.350;2023-03-26T07:56:14;99169.00;;;9.61;82.78
66681;BME280;53575;51.366;12.350;2023-03-26T07:58:55;99163.56;;;9.71;82.79
66681;BME280;53575;51.366;12.350;2023-03-26T08:06:36;99172.53;;;10.00;81.59
66681;BME280;53575;51.366;12.350;2023-03-26T08:09:41;99170.72;;;10.04;81.12
66681;BME280;53575;51.366;12.350;2023-03-26T08:22:56;99153.75;;;10.21;78.91
66681;BME280;53575;51.366;12.350;2023-03-26T08:25:42;99163.34;;;10.21;78.23
66681;BME280;53575;51.366;12.350;2023-03-26T08:30:58;99147.94;;;10.47;77.20
66681;BME280;53575;51.366;12.350;2023-03-26T08:33:27;99148.59;;;10.57;76.96
66681;BME280;53575;51.366;12.350;2023-03-26T08:35:53;99155.00;;;10.78;76.70
66681;BME280;53575;51.366;12.350;2023-03-26T08:38:19;99139.59;;;10.67;77.09
66681;BME280;53575;51.366;12.350;2023-03-26T08:41:13;99144.22;;;10.90;75.78
66681;BME280;53575;51.366;12.350;2023-03-26T09:18:16;99105.00;;;11.23;72.49
66681;BME280;53575;51.366;12.350;2023-03-26T09:24:09;99108.97;;;11.36;72.00
66681;BME280;53575;51.366;12.350;2023-03-26T09:27:08;99099.34;;;11.38;71.82
66681;BME280;53575;51.366;12.350;2023-03-26T09:33:53;99096.53;;;12.04;70.37
66681;BME280;53575;51.366;12.350;2023-03-26T09:35:54;99099.59;;;12.16;69.70
66681;BME280;53575;51.366;12.350;2023-03-26T09:38:35;99102.47;;;12.37;67.38
66681;BME280;53575;51.366;12.350;2023-03-26T10:08:35;99057.56;;;12.98;63.89
66681;BME280;53575;51.366;12.350;2023-03-26T10:11:20;99060.13;;;13.23;61.55
66681;BME280;53575;51.366;12.350;2023-03-26T10:22:59;99016.75;;;13.14;63.40
66681;BME280;53575;51.366;12.350;2023-03-26T10:40:21;99018.88;;;12.54;63.39
66681;BME280;53575;51.366;12.350;2023-03-26T10:51:48;99004.09;;;13.02;60.10
66681;BME280;53575;51.366;12.350;2023-03-26T10:54:37;99002.72;;;12.91;60.77
66681;BME280;53575;51.366;12.350;2023-03-26T10:57:46;98995.88;;;13.34;59.76
66681;BME280;53575;51.366;12.350;2023-03-26T11:00:20;98995.34;;;13.48;59.10
66681;BME280;53575;51.366;12.350;2023-03-26T11:03:16;98992.53;;;13.53;58.13
66681;BME280;53575;51.366;12.350;2023-03-26T11:06:14;98998.16;;;13.65;57.36
66681;BME280;53575;51.366;12.350;2023-03-26T11:13:53;98998.22;;;13.86;58.57
66681;BME280;53575;51.366;12.350;2023-03-26T11:16:29;99000.16;;;13.81;58.13
66681;BME280;53575;51.366;12.350;2023-03-26T11:19:13;98991.88;;;13.48;59.55
66681;BME280;53575;51.366;12.350;2023-03-26T11:27:15;98998.78;;;13.03;61.04
66681;BME280;53575;51.366;12.350;2023-03-26T11:32:41;98993.44;;;12.81;60.90
66681;BME280;53575;51.366;12.350;2023-03-26T11:37:49;98990.00;;;13.28;59.01
66681;BME280;53575;51.366;12.350;2023-03-26T11:40:20;98989.00;;;13.32;59.38
66681;BME280;53575;51.366;12.350;2023-03-26T11:42:50;98980.66;;;13.21;59.84
66681;BME280;53575;51.366;12.350;2023-03-26T11:45:24;98991.47;;;13.11;60.26
66681;BME280;53575;51.366;12.350;2023-03-26T11:48:07;98985.88;;;12.74;59.98
66681;BME280;53575;51.366;12.350;2023-03-26T11:50:40;98992.00;;;12.49;60.69
66681;BME280;53575;51.366;12.350;2023-03-26T11:53:13;98990.09;;;12.28;60.83
66681;BME280;53575;51.366;12.350;2023-03-26T11:55:57;98989.03;;;12.08;65.61
66681;BME280;53575;51.366;12.350;2023-03-26T11:58:35;98987.28;;;11.81;67.64
66681;BME280;53575;51.366;12.350;2023-03-26T12:01:11;98990.25;;;11.70;70.09
66681;BME280;53575;51.366;12.350;2023-03-26T12:03:38;98989.53;;;11.65;71.44
66681;BME280;53575;51.366;12.350;2023-03-26T12:06:05;98979.78;;;11.70;71.24
66681;BME280;53575;51.366;12.350;2023-03-26T12:08:40;98981.44;;;11.73;71.12
66681;BME280;53575;51.366;12.350;2023-03-26T12:11:08;98979.31;;;11.85;69.98
66681;BME280;53575;51.366;12.350;2023-03-26T12:13:59;98965.44;;;12.08;70.61
66681;BME280;53575;51.366;12.350;2023-03-26T12:16:25;98965.47;;;12.33;70.48
66681;BME280;53575;51.366;12.350;2023-03-26T12:19:08;98948.19;;;12.53;68.54
66681;BME280;53575;51.366;12.350;2023-03-26T12:21:46;98951.06;;;12.93;67.74
66681;BME280;53575;51.366;12.350;2023-03-26T12:24:33;98943.22;;;13.39;67.36
66681;BME280;53575;51.366;12.350;2023-03-26T12:27:20;98946.25;;;13.50;65.52
66681;BME280;53575;51.366;12.350;2023-03-26T12:32:40;98937.72;;;13.00;66.05
66681;BME280;53575;51.366;12.350;2023-03-26T12:35:09;98957.00;;;12.75;65.17
66681;BME280;53575;51.366;12.350;2023-03-26T12:37:43;98953.88;;;12.15;67.30
66681;BME280;53575;51.366;12.350;2023-03-26T12:42:52;98960.41;;;11.49;70.81
66681;BME280;53575;51.366;12.350;2023-03-26T12:45:39;98965.50;;;11.24;71.08
66681;BME280;53575;51.366;12.350;2023-03-26T12:48:06;98973.91;;;11.06;72.47
66681;BME280;53575;51.366;12.350;2023-03-26T12:53:41;98966.56;;;10.89;74.73
66681;BME280;53575;51.366;12.350;2023-03-26T12:57:05;98963.75;;;11.25;74.79
66681;BME280;53575;51.366;12.350;2023-03-26T12:59:36;98952.09;;;11.63;74.87
66681;BME280;53575;51.366;12.350;2023-03-26T13:04:42;98958.84;;;12.48;71.27
66681;BME280;53575;51.366;12.350;2023-03-26T13:07:20;98951.41;;;12.84;68.91
66681;BME280;53575;51.366;12.350;2023-03-26T13:10:14;98939.31;;;13.04;67.59
66681;BME280;53575;51.366;12.350;2023-03-26T13:12:53;98937.09;;;13.16;67.61
66681;BME280;53575;51.366;12.350;2023-03-26T13:15:35;98934.25;;;13.45;68.51
66681;BME280;53575;51.366;12.350;2023-03-26T13:20:57;98928.47;;;13.36;66.04
66681;BME280;53575;51.366;12.350;2023-03-26T13:23:48;98935.75;;;12.83;67.30
66681;BME280;53575;51.366;12.350;2023-03-26T13:31:41;98961.75;;;11.05;70.16
66681;BME280;53575;51.366;12.350;2023-03-26T13:43:13;98939.97;;;10.43;75.41
66681;BME280;53575;51.366;12.350;2023-03-26T13:46:04;98929.81;;;10.34;74.56
66681;BME280;53575;51.366;12.350;2023-03-26T13:48:47;98927.78;;;10.44;75.43
66681;BME280;53575;51.366;12.350;2023-03-26T13:51:41;98932.78;;;10.52;75.20
66681;BME280;53575;51.366;12.350;2023-03-26T13:54:21;98933.00;;;10.44;74.63
66681;BME280;53575;51.366;12.350;2023-03-26T13:56:55;98929.75;;;10.36;74.94
66681;BME280;53575;51.366;12.350;2023-03-26T14:02:36;98923.22;;;10.18;76.12
66681;BME280;53575;51.366;12.350;2023-03-26T14:05:14;98936.53;;;10.09;76.45
66681;BME280;53575;51.366;12.350;2023-03-26T14:07:48;98926.22;;;10.04;77.36
66681;BME280;53575;51.366;12.350;2023-03-26T14:18:34;98920.28;;;10.32;75.70
66681;BME280;53575;51.366;12.350;2023-03-26T14:32:26;98921.34;;;9.90;79.48
66681;BME280;53575;51.366;12.350;2023-03-26T14:37:27;98925.28;;;9.72;81.58
66681;BME280;53575;51.366;12.350;2023-03-26T14:54:03;98921.16;;;9.26;90.61
66681;BME280;53575;51.366;12.350;2023-03-26T15:11:02;98917.59;;;8.93;96.92
66681;BME280;53575;51.366;12.350;2023-03-26T15:24:58;98921.84;;;8.96;100.00
66681;BME280;53575;51.366;12.350;2023-03-26T15:33:09;98916.66;;;8.96;100.00
66681;BME280;53575;51.366;12.350;2023-03-26T15:41:54;98906.78;;;9.10;100.00
66681;BME280;53575;51.366;12.350;2023-03-26T15:47:16;98905.88;;;9.11;100.00
66681;BME280;53575;51.366;12.350;2023-03-26T15:49:52;98909.38;;;9.10;99.31
66681;BME280;53575;51.366;12.350;2023-03-26T15:54:56;98907.81;;;9.03;100.00
66681;BME280;53575;51.366;12.350;2023-03-26T15:57:31;98902.75;;;8.97;100.00
66681;BME280;53575;51.366;12.350;2023-03-26T16:03:15;98898.47;;;8.93;100.00
66681;BME280;53575;51.366;12.350;2023-03-26T16:06:10;98895.72;;;8.99;100.00
66681;BME280;53575;51.366;12.350;2023-03-26T16:16:51;98901.88;;;8.96;100.00
66681;BME280;53575;51.366;12.350;2023-03-26T16:21:53;98899.53;;;8.84;100.00
66681;BME280;53575;51.366;12.350;2023-03-26T16:24:25;98894.31;;;8.84;100.00
66681;BME280;53575;51.366;12.350;2023-03-26T16:29:21;98897.31;;;8.67;100.00
66681;BME280;53575;51.366;12.350;2023-03-26T16:34:48;98897.25;;;8.69;100.00
66681;BME280;53575;51.366;12.350;2023-03-26T16:37:43;98896.34;;;8.70;100.00
66681;BME280;53575;51.366;12.350;2023-03-26T16:45:20;98889.66;;;8.58;100.00
66681;BME280;53575;51.366;12.350;2023-03-26T16:56:26;98896.97;;;8.41;100.00
66681;BME280;53575;51.366;12.350;2023-03-26T16:59:00;98892.00;;;8.27;100.00
66681;BME280;53575;51.366;12.350;2023-03-26T17:01:45;98893.69;;;8.29;100.00
66681;BME280;53575;51.366;12.350;2023-03-26T17:04:17;98894.47;;;8.35;100.00
66681;BME280;53575;51.366;12.350;2023-03-26T17:09:58;98895.13;;;8.46;100.00
66681;BME280;53575;51.366;12.350;2023-03-26T17:15:12;98901.56;;;8.28;100.00
66681;BME280;53575;51.366;12.350;2023-03-26T17:22:47;98905.16;;;8.19;100.00
66681;BME280;53575;51.366;12.350;2023-03-26T17:25:36;98901.75;;;8.17;100.00
66681;BME280;53575;51.366;12.350;2023-03-26T17:28:45;98907.75;;;8.19;100.00
66681;BME280;53575;51.366;12.350;2023-03-26T17:34:30;98906.34;;;8.03;100.00
66681;BME280;53575;51.366;12.350;2023-03-26T17:36:58;98914.97;;;8.06;100.00
66681;BME280;53575;51.366;12.350;2023-03-26T17:44:57;98919.41;;;8.00;100.00
66681;BME280;53575;51.366;12.350;2023-03-26T17:52:51;98921.44;;;7.84;100.00
66681;BME280;53575;51.366;12.350;2023-03-26T17:55:21;98918.78;;;7.87;100.00
66681;BME280;53575;51.366;12.350;2023-03-26T17:57:58;98927.53;;;7.83;100.00
66681;BME280;53575;51.366;12.350;2023-03-26T18:00:33;98926.00;;;7.70;100.00
66681;BME280;53575;51.366;12.350;2023-03-26T18:03:13;98927.59;;;7.78;100.00
66681;BME280;53575;51.366;12.350;2023-03-26T18:05:42;98926.44;;;7.93;100.00
66681;BME280;53575;51.366;12.350;2023-03-26T18:18:56;98921.72;;;7.66;100.00
66681;BME280;53575;51.366;12.350;2023-03-26T18:23:54;98929.66;;;7.60;100.00
66681;BME280;53575;51.366;12.350;2023-03-26T18:26:30;98924.41;;;7.61;100.00
66681;BME280;53575;51.366;12.350;2023-03-26T18:29:19;98931.88;;;7.82;100.00
66681;BME280;53575;51.366;12.350;2023-03-26T18:31:48;98932.59;;;7.89;100.00
66681;BME280;53575;51.366;12.350;2023-03-26T18:34:17;98926.69;;;7.81;100.00
66681;BME280;53575;51.366;12.350;2023-03-26T18:39:32;98928.84;;;7.56;100.00
66681;BME280;53575;51.366;12.350;2023-03-26T18:41:59;98927.72;;;7.71;100.00
66681;BME280;53575;51.366;12.350;2023-03-26T18:44:24;98928.63;;;7.67;100.00
66681;BME280;53575;51.366;12.350;2023-03-26T18:46:53;98925.38;;;7.54;100.00
66681;BME280;53575;51.366;12.350;2023-03-26T18:49:19;98925.38;;;7.54;100.00
66681;BME280;53575;51.366;12.350;2023-03-26T18:51:45;98919.03;;;7.70;100.00
66681;BME280;53575;51.366;12.350;2023-03-26T18:54:18;98920.97;;;7.61;100.00
66681;BME280;53575;51.366;12.350;2023-03-26T18:56:48;98928.03;;;7.52;100.00
66681;BME280;53575;51.366;12.350;2023-03-26T18:59:30;98920.28;;;7.49;100.00
66681;BME280;53575;51.366;12.350;2023-03-26T19:02:02;98915.63;;;7.68;100.00
66681;BME280;53575;51.366;12.350;2023-03-26T19:04:28;98927.81;;;7.65;100.00
66681;BME280;53575;51.366;12.350;2023-03-26T19:06:56;98918.44;;;7.56;100.00
66681;BME280;53575;51.366;12.350;2023-03-26T19:09:22;98923.84;;;7.42;100.00